sensor_id;sensor_type;location;lat;lon;timestamp;P1;durP1;ratioP1;P2;durP2;ratioP2
44434;SDS011;30138;20.964;105.830;2023-03-14T00:03:57;102.45;;;53.88;;
44434;SDS011;30138;20.964;105.830;2023-03-14T00:09:05;99.10;;;52.80;;
44434;SDS011;30138;20.964;105.830;2023-03-14T00:14:13;113.18;;;56.10;;
44434;SDS011;30138;20.964;105.830;2023-03-14T00:19:21;109.68;;;58.55;;
44434;SDS011;30138;20.964;105.830;2023-03-14T00:24:28;122.60;;;62.33;;
44434;SDS011;30138;20.964;105.830;2023-03-14T00:29:36;132.75;;;64.50;;
44434;SDS011;30138;20.964;105.830;2023-03-14T00:34:43;143.30;;;67.88;;
44434;SDS011;30138;20.964;105.830;2023-03-14T00:39:51;147.27;;;68.88;;
44434;SDS011;30138;20.964;105.830;2023-03-14T00:45:01;148.98;;;71.20;;
44434;SDS011;30138;20.964;105.830;2023-03-14T00:50:09;148.68;;;72.85;;
44434;SDS011;30138;20.964;105.830;2023-03-14T00:55:16;157.65;;;75.78;;
44434;SDS011;30138;20.964;105.830;2023-03-14T01:00:27;160.88;;;77.90;;
44434;SDS011;30138;20.964;105.830;2023-03-14T01:05:36;162.00;;;79.30;;
44434;SDS011;30138;20.964;105.830;2023-03-14T01:10:43;186.50;;;80.43;;
44434;SDS011;30138;20.964;105.830;2023-03-14T01:15:51;173.65;;;82.10;;
44434;SDS011;30138;20.964;105.830;2023-03-14T01:20:58;190.18;;;83.43;;
44434;SDS011;30138;20.964;105.830;2023-03-14T01:26:08;174.13;;;80.10;;
44434;SDS011;30138;20.964;105.830;2023-03-14T01:31:18;193.20;;;89.40;;
44434;SDS011;30138;20.964;105.830;2023-03-14T01:36:26;198.10;;;86.53;;
44434;SDS011;30138;20.964;105.830;2023-03-14T01:41:35;170.68;;;85.15;;
44434;SDS011;30138;20.964;105.830;2023-03-14T01:46:45;184.77;;;86.93;;
44434;SDS011;30138;20.964;105.830;2023-03-14T01:51:53;192.68;;;86.82;;
44434;SDS011;30138;20.964;105.830;2023-03-14T01:57:05;189.70;;;89.07;;
44434;SDS011;30138;20.964;105.830;2023-03-14T02:02:22;177.77;;;89.55;;
44434;SDS011;30138;20.964;105.830;2023-03-14T02:12:53;193.70;;;93.07;;
44434;SDS011;30138;20.964;105.830;2023-03-14T02:18:35;221.75;;;106.45;;
44434;SDS011;30138;20.964;105.830;2023-03-14T02:24:03;262.23;;;119.38;;
44434;SDS011;30138;20.964;105.830;2023-03-14T02:29:23;297.53;;;127.43;;
44434;SDS011;30138;20.964;105.830;2023-03-14T02:34:37;282.90;;;122.70;;
44434;SDS011;30138;20.964;105.830;2023-03-14T02:39:47;247.18;;;106.35;;
44434;SDS011;30138;20.964;105.830;2023-03-14T02:50:52;186.52;;;73.72;;
44434;SDS011;30138;20.964;105.830;2023-03-14T02:56:03;155.52;;;57.03;;
44434;SDS011;30138;20.964;105.830;2023-03-14T03:01:15;151.57;;;54.30;;
44434;SDS011;30138;20.964;105.830;2023-03-14T03:06:23;134.95;;;50.42;;
44434;SDS011;30138;20.964;105.830;2023-03-14T03:17:09;121.80;;;46.45;;
44434;SDS011;30138;20.964;105.830;2023-03-14T03:22:23;118.30;;;47.80;;
44434;SDS011;30138;20.964;105.830;2023-03-14T03:27:31;144.75;;;47.08;;
44434;SDS011;30138;20.964;105.830;2023-03-14T03:32:41;139.27;;;47.05;;
44434;SDS011;30138;20.964;105.830;2023-03-14T03:37:48;137.65;;;47.33;;
44434;SDS011;30138;20.964;105.830;2023-03-14T03:42:57;144.82;;;47.90;;
44434;SDS011;30138;20.964;105.830;2023-03-14T03:48:08;115.35;;;44.25;;
44434;SDS011;30138;20.964;105.830;2023-03-14T03:53:15;116.07;;;42.45;;
44434;SDS011;30138;20.964;105.830;2023-03-14T03:58:23;110.78;;;39.92;;
44434;SDS011;30138;20.964;105.830;2023-03-14T04:03:34;116.18;;;39.42;;
44434;SDS011;30138;20.964;105.830;2023-03-14T04:08:43;111.22;;;37.47;;
44434;SDS011;30138;20.964;105.830;2023-03-14T04:14:37;94.75;;;35.88;;
44434;SDS011;30138;20.964;105.830;2023-03-14T04:19:57;103.72;;;35.03;;
44434;SDS011;30138;20.964;105.830;2023-03-14T04:25:10;103.93;;;36.00;;
44434;SDS011;30138;20.964;105.830;2023-03-14T04:30:24;108.88;;;35.85;;
44434;SDS011;30138;20.964;105.830;2023-03-14T04:35:42;92.68;;;33.75;;
44434;SDS011;30138;20.964;105.830;2023-03-14T04:40:54;89.38;;;32.53;;
44434;SDS011;30138;20.964;105.830;2023-03-14T04:46:09;92.80;;;31.58;;
44434;SDS011;30138;20.964;105.830;2023-03-14T04:51:23;83.88;;;32.72;;
44434;SDS011;30138;20.964;105.830;2023-03-14T04:56:32;86.70;;;35.10;;
44434;SDS011;30138;20.964;105.830;2023-03-14T05:01:40;83.07;;;34.67;;
44434;SDS011;30138;20.964;105.830;2023-03-14T05:07:06;92.45;;;34.90;;
44434;SDS011;30138;20.964;105.830;2023-03-14T05:12:37;79.63;;;35.35;;
44434;SDS011;30138;20.964;105.830;2023-03-14T05:18:14;84.90;;;36.00;;
44434;SDS011;30138;20.964;105.830;2023-03-14T05:23:49;80.70;;;35.00;;
44434;SDS011;30138;20.964;105.830;2023-03-14T05:29:17;96.05;;;37.88;;
44434;SDS011;30138;20.964;105.830;2023-03-14T05:34:46;89.70;;;37.70;;
44434;SDS011;30138;20.964;105.830;2023-03-14T05:40:28;87.25;;;37.95;;
44434;SDS011;30138;20.964;105.830;2023-03-14T05:45:49;87.65;;;36.05;;
44434;SDS011;30138;20.964;105.830;2023-03-14T05:51:23;99.82;;;36.88;;
44434;SDS011;30138;20.964;105.830;2023-03-14T05:56:47;94.25;;;37.85;;
44434;SDS011;30138;20.964;105.830;2023-03-14T06:02:01;82.22;;;35.45;;
44434;SDS011;30138;20.964;105.830;2023-03-14T06:07:21;86.45;;;35.33;;
44434;SDS011;30138;20.964;105.830;2023-03-14T06:12:32;87.63;;;36.53;;
44434;SDS011;30138;20.964;105.830;2023-03-14T06:17:41;94.50;;;37.45;;
44434;SDS011;30138;20.964;105.830;2023-03-14T06:22:54;88.72;;;37.60;;
44434;SDS011;30138;20.964;105.830;2023-03-14T06:28:06;102.63;;;40.23;;
44434;SDS011;30138;20.964;105.830;2023-03-14T06:33:13;100.22;;;37.97;;
44434;SDS011;30138;20.964;105.830;2023-03-14T06:38:21;101.13;;;38.00;;
44434;SDS011;30138;20.964;105.830;2023-03-14T06:43:32;91.90;;;37.38;;
44434;SDS011;30138;20.964;105.830;2023-03-14T06:48:42;91.23;;;37.47;;
44434;SDS011;30138;20.964;105.830;2023-03-14T06:53:49;92.70;;;40.03;;
44434;SDS011;30138;20.964;105.830;2023-03-14T07:04:11;112.00;;;45.72;;
44434;SDS011;30138;20.964;105.830;2023-03-14T07:09:22;101.23;;;42.97;;
44434;SDS011;30138;20.964;105.830;2023-03-14T07:14:37;98.47;;;40.65;;
44434;SDS011;30138;20.964;105.830;2023-03-14T07:19:45;108.55;;;42.28;;
44434;SDS011;30138;20.964;105.830;2023-03-14T07:24:52;108.28;;;42.60;;
44434;SDS011;30138;20.964;105.830;2023-03-14T07:30:04;106.28;;;43.22;;
44434;SDS011;30138;20.964;105.830;2023-03-14T07:40:20;113.47;;;45.20;;
44434;SDS011;30138;20.964;105.830;2023-03-14T07:45:31;114.38;;;46.80;;
44434;SDS011;30138;20.964;105.830;2023-03-14T07:50:39;102.13;;;46.85;;
44434;SDS011;30138;20.964;105.830;2023-03-14T07:55:46;110.10;;;46.28;;
44434;SDS011;30138;20.964;105.830;2023-03-14T08:00:58;111.13;;;46.90;;
44434;SDS011;30138;20.964;105.830;2023-03-14T08:06:06;112.28;;;48.08;;
44434;SDS011;30138;20.964;105.830;2023-03-14T08:11:15;117.18;;;49.95;;
44434;SDS011;30138;20.964;105.830;2023-03-14T08:16:29;116.05;;;48.92;;
44434;SDS011;30138;20.964;105.830;2023-03-14T08:26:47;110.70;;;52.35;;
44434;SDS011;30138;20.964;105.830;2023-03-14T08:31:57;122.97;;;53.38;;
44434;SDS011;30138;20.964;105.830;2023-03-14T08:37:06;124.63;;;52.70;;
44434;SDS011;30138;20.964;105.830;2023-03-14T08:42:14;124.68;;;54.58;;
44434;SDS011;30138;20.964;105.830;2023-03-14T08:47:28;114.20;;;53.72;;
44434;SDS011;30138;20.964;105.830;2023-03-14T08:52:36;113.50;;;52.85;;
44434;SDS011;30138;20.964;105.830;2023-03-14T08:57:44;121.28;;;55.75;;
44434;SDS011;30138;20.964;105.830;2023-03-14T09:02:56;117.15;;;55.03;;
44434;SDS011;30138;20.964;105.830;2023-03-14T09:08:03;129.40;;;59.38;;
44434;SDS011;30138;20.964;105.830;2023-03-14T09:13:10;124.45;;;59.28;;
44434;SDS011;30138;20.964;105.830;2023-03-14T09:18:21;120.38;;;59.92;;
44434;SDS011;30138;20.964;105.830;2023-03-14T09:23:28;134.88;;;62.50;;
44434;SDS011;30138;20.964;105.830;2023-03-14T09:28:37;134.65;;;62.53;;
44434;SDS011;30138;20.964;105.830;2023-03-14T09:33:50;129.20;;;60.40;;
44434;SDS011;30138;20.964;105.830;2023-03-14T09:39:01;132.38;;;64.20;;
44434;SDS011;30138;20.964;105.830;2023-03-14T09:44:14;118.85;;;60.63;;
44434;SDS011;30138;20.964;105.830;2023-03-14T09:49:28;122.50;;;62.60;;
44434;SDS011;30138;20.964;105.830;2023-03-14T09:59:45;120.72;;;60.17;;
44434;SDS011;30138;20.964;105.830;2023-03-14T10:05:00;131.00;;;62.78;;
44434;SDS011;30138;20.964;105.830;2023-03-14T10:10:19;134.02;;;64.28;;
44434;SDS011;30138;20.964;105.830;2023-03-14T10:15:30;143.38;;;65.20;;
44434;SDS011;30138;20.964;105.830;2023-03-14T10:20:44;134.40;;;66.53;;
44434;SDS011;30138;20.964;105.830;2023-03-14T10:26:00;146.68;;;67.30;;
44434;SDS011;30138;20.964;105.830;2023-03-14T10:31:12;144.75;;;65.72;;
44434;SDS011;30138;20.964;105.830;2023-03-14T10:36:23;128.88;;;63.33;;
44434;SDS011;30138;20.964;105.830;2023-03-14T10:41:33;129.13;;;63.00;;
44434;SDS011;30138;20.964;105.830;2023-03-14T10:46:41;149.63;;;69.32;;
44434;SDS011;30138;20.964;105.830;2023-03-14T10:52:09;140.90;;;69.07;;
44434;SDS011;30138;20.964;105.830;2023-03-14T10:57:38;150.05;;;69.18;;
44434;SDS011;30138;20.964;105.830;2023-03-14T11:03:00;131.85;;;65.68;;
44434;SDS011;30138;20.964;105.830;2023-03-14T11:08:20;129.38;;;69.07;;
44434;SDS011;30138;20.964;105.830;2023-03-14T11:13:36;132.13;;;67.78;;
44434;SDS011;30138;20.964;105.830;2023-03-14T11:24:52;134.80;;;68.53;;
44434;SDS011;30138;20.964;105.830;2023-03-14T11:30:21;146.30;;;70.55;;
44434;SDS011;30138;20.964;105.830;2023-03-14T11:35:41;142.93;;;67.93;;
44434;SDS011;30138;20.964;105.830;2023-03-14T11:40:57;126.38;;;69.50;;
44434;SDS011;30138;20.964;105.830;2023-03-14T11:46:08;122.78;;;70.50;;
44434;SDS011;30138;20.964;105.830;2023-03-14T11:51:21;130.60;;;67.88;;
44434;SDS011;30138;20.964;105.830;2023-03-14T11:56:44;126.43;;;70.43;;
44434;SDS011;30138;20.964;105.830;2023-03-14T12:01:57;130.88;;;68.78;;
44434;SDS011;30138;20.964;105.830;2023-03-14T12:07:13;133.73;;;69.78;;
44434;SDS011;30138;20.964;105.830;2023-03-14T12:12:29;119.47;;;67.93;;
44434;SDS011;30138;20.964;105.830;2023-03-14T12:17:38;126.82;;;70.65;;
44434;SDS011;30138;20.964;105.830;2023-03-14T12:22:57;130.63;;;73.30;;
44434;SDS011;30138;20.964;105.830;2023-03-14T12:28:22;137.60;;;72.47;;
44434;SDS011;30138;20.964;105.830;2023-03-14T12:33:37;129.60;;;71.78;;
44434;SDS011;30138;20.964;105.830;2023-03-14T12:38:52;134.00;;;70.88;;
44434;SDS011;30138;20.964;105.830;2023-03-14T12:49:56;130.75;;;71.50;;
44434;SDS011;30138;20.964;105.830;2023-03-14T12:55:25;133.45;;;71.13;;
44434;SDS011;30138;20.964;105.830;2023-03-14T13:00:46;126.88;;;70.55;;
44434;SDS011;30138;20.964;105.830;2023-03-14T13:06:08;133.40;;;72.30;;
44434;SDS011;30138;20.964;105.830;2023-03-14T13:11:19;134.73;;;71.28;;
44434;SDS011;30138;20.964;105.830;2023-03-14T13:16:44;135.73;;;71.40;;
44434;SDS011;30138;20.964;105.830;2023-03-14T13:22:01;131.85;;;71.25;;
44434;SDS011;30138;20.964;105.830;2023-03-14T13:27:30;131.10;;;71.20;;
44434;SDS011;30138;20.964;105.830;2023-03-14T13:32:54;132.57;;;70.35;;
44434;SDS011;30138;20.964;105.830;2023-03-14T13:38:20;123.95;;;70.00;;
44434;SDS011;30138;20.964;105.830;2023-03-14T13:43:33;120.55;;;69.07;;
44434;SDS011;30138;20.964;105.830;2023-03-14T13:49:04;136.52;;;69.55;;
44434;SDS011;30138;20.964;105.830;2023-03-14T13:54:29;132.27;;;69.97;;
44434;SDS011;30138;20.964;105.830;2023-03-14T13:59:43;120.57;;;67.57;;
44434;SDS011;30138;20.964;105.830;2023-03-14T14:05:25;121.82;;;67.30;;
44434;SDS011;30138;20.964;105.830;2023-03-14T14:10:42;123.93;;;69.95;;
44434;SDS011;30138;20.964;105.830;2023-03-14T14:16:00;123.50;;;68.93;;
44434;SDS011;30138;20.964;105.830;2023-03-14T14:21:18;121.47;;;68.82;;
44434;SDS011;30138;20.964;105.830;2023-03-14T14:26:31;118.28;;;67.45;;
44434;SDS011;30138;20.964;105.830;2023-03-14T14:31:44;127.13;;;68.60;;
44434;SDS011;30138;20.964;105.830;2023-03-14T14:37:04;125.30;;;67.43;;
44434;SDS011;30138;20.964;105.830;2023-03-14T14:42:38;115.82;;;67.68;;
44434;SDS011;30138;20.964;105.830;2023-03-14T14:47:49;110.10;;;67.82;;
44434;SDS011;30138;20.964;105.830;2023-03-14T14:58:40;112.82;;;66.50;;
44434;SDS011;30138;20.964;105.830;2023-03-14T15:03:51;119.10;;;67.97;;
44434;SDS011;30138;20.964;105.830;2023-03-14T15:09:04;118.20;;;69.15;;
44434;SDS011;30138;20.964;105.830;2023-03-14T15:14:16;114.50;;;67.45;;
44434;SDS011;30138;20.964;105.830;2023-03-14T15:19:25;115.15;;;68.60;;
44434;SDS011;30138;20.964;105.830;2023-03-14T15:24:40;113.65;;;68.28;;
44434;SDS011;30138;20.964;105.830;2023-03-14T15:29:50;110.47;;;67.97;;
44434;SDS011;30138;20.964;105.830;2023-03-14T15:34:59;108.05;;;67.00;;
44434;SDS011;30138;20.964;105.830;2023-03-14T15:40:11;109.53;;;67.10;;
44434;SDS011;30138;20.964;105.830;2023-03-14T15:45:22;108.80;;;68.80;;
44434;SDS011;30138;20.964;105.830;2023-03-14T15:50:32;108.35;;;66.38;;
44434;SDS011;30138;20.964;105.830;2023-03-14T15:55:45;113.40;;;70.30;;
44434;SDS011;30138;20.964;105.830;2023-03-14T16:00:54;107.50;;;67.53;;
44434;SDS011;30138;20.964;105.830;2023-03-14T16:06:03;117.20;;;69.78;;
44434;SDS011;30138;20.964;105.830;2023-03-14T16:11:14;105.53;;;67.85;;
44434;SDS011;30138;20.964;105.830;2023-03-14T16:16:22;108.18;;;69.00;;
44434;SDS011;30138;20.964;105.830;2023-03-14T16:21:31;109.18;;;68.70;;
44434;SDS011;30138;20.964;105.830;2023-03-14T16:26:42;119.18;;;69.28;;
44434;SDS011;30138;20.964;105.830;2023-03-14T16:31:52;117.57;;;68.73;;
44434;SDS011;30138;20.964;105.830;2023-03-14T16:37:02;122.55;;;71.72;;
44434;SDS011;30138;20.964;105.830;2023-03-14T16:42:21;129.18;;;72.53;;
44434;SDS011;30138;20.964;105.830;2023-03-14T16:47:32;158.20;;;74.40;;
44434;SDS011;30138;20.964;105.830;2023-03-14T16:52:40;145.35;;;75.75;;
44434;SDS011;30138;20.964;105.830;2023-03-14T16:57:52;144.38;;;75.65;;
44434;SDS011;30138;20.964;105.830;2023-03-14T17:03:01;161.65;;;76.47;;
44434;SDS011;30138;20.964;105.830;2023-03-14T17:08:09;159.27;;;74.47;;
44434;SDS011;30138;20.964;105.830;2023-03-14T17:13:19;151.35;;;75.03;;
44434;SDS011;30138;20.964;105.830;2023-03-14T17:23:36;149.10;;;74.68;;
44434;SDS011;30138;20.964;105.830;2023-03-14T17:28:46;153.48;;;76.75;;
44434;SDS011;30138;20.964;105.830;2023-03-14T17:33:54;164.65;;;74.20;;
44434;SDS011;30138;20.964;105.830;2023-03-14T17:39:03;155.02;;;74.47;;
44434;SDS011;30138;20.964;105.830;2023-03-14T17:44:13;163.43;;;72.93;;
44434;SDS011;30138;20.964;105.830;2023-03-14T17:49:21;162.90;;;73.72;;
44434;SDS011;30138;20.964;105.830;2023-03-14T17:54:32;148.30;;;72.25;;
44434;SDS011;30138;20.964;105.830;2023-03-14T17:59:46;146.98;;;72.20;;
44434;SDS011;30138;20.964;105.830;2023-03-14T18:04:54;151.32;;;71.78;;
44434;SDS011;30138;20.964;105.830;2023-03-14T18:10:01;144.23;;;70.28;;
44434;SDS011;30138;20.964;105.830;2023-03-14T18:15:12;149.55;;;69.88;;
44434;SDS011;30138;20.964;105.830;2023-03-14T18:20:19;152.77;;;70.38;;
44434;SDS011;30138;20.964;105.830;2023-03-14T18:25:25;155.48;;;72.18;;
44434;SDS011;30138;20.964;105.830;2023-03-14T18:30:34;154.85;;;71.00;;
44434;SDS011;30138;20.964;105.830;2023-03-14T18:35:43;146.93;;;70.70;;
44434;SDS011;30138;20.964;105.830;2023-03-14T18:40:52;148.48;;;69.00;;
44434;SDS011;30138;20.964;105.830;2023-03-14T18:46:04;152.80;;;70.22;;
44434;SDS011;30138;20.964;105.830;2023-03-14T18:51:12;141.60;;;69.75;;
44434;SDS011;30138;20.964;105.830;2023-03-14T18:56:20;139.13;;;68.25;;
44434;SDS011;30138;20.964;105.830;2023-03-14T19:01:29;150.20;;;70.60;;
44434;SDS011;30138;20.964;105.830;2023-03-14T19:06:38;157.48;;;69.10;;
44434;SDS011;30138;20.964;105.830;2023-03-14T19:11:46;147.73;;;67.82;;
44434;SDS011;30138;20.964;105.830;2023-03-14T19:16:56;147.88;;;71.72;;
44434;SDS011;30138;20.964;105.830;2023-03-14T19:22:03;149.20;;;69.65;;
44434;SDS011;30138;20.964;105.830;2023-03-14T19:27:25;151.23;;;72.20;;
44434;SDS011;30138;20.964;105.830;2023-03-14T19:32:34;144.75;;;72.05;;
44434;SDS011;30138;20.964;105.830;2023-03-14T19:37:40;144.45;;;73.18;;
44434;SDS011;30138;20.964;105.830;2023-03-14T19:42:48;158.00;;;73.55;;
44434;SDS011;30138;20.964;105.830;2023-03-14T19:47:58;154.23;;;72.70;;
44434;SDS011;30138;20.964;105.830;2023-03-14T19:53:06;159.32;;;75.85;;
44434;SDS011;30138;20.964;105.830;2023-03-14T19:58:13;155.90;;;76.40;;
44434;SDS011;30138;20.964;105.830;2023-03-14T20:03:23;157.73;;;76.60;;
44434;SDS011;30138;20.964;105.830;2023-03-14T20:08:31;170.05;;;78.80;;
44434;SDS011;30138;20.964;105.830;2023-03-14T20:13:39;173.13;;;82.32;;
44434;SDS011;30138;20.964;105.830;2023-03-14T20:18:48;174.07;;;84.18;;
44434;SDS011;30138;20.964;105.830;2023-03-14T20:23:57;169.68;;;81.13;;
44434;SDS011;30138;20.964;105.830;2023-03-14T20:29:03;175.98;;;82.32;;
44434;SDS011;30138;20.964;105.830;2023-03-14T20:34:12;172.23;;;82.57;;
44434;SDS011;30138;20.964;105.830;2023-03-14T20:39:19;168.55;;;81.50;;
44434;SDS011;30138;20.964;105.830;2023-03-14T20:44:26;168.32;;;82.90;;
44434;SDS011;30138;20.964;105.830;2023-03-14T20:49:36;156.98;;;81.03;;
44434;SDS011;30138;20.964;105.830;2023-03-14T20:54:43;155.20;;;77.78;;
44434;SDS011;30138;20.964;105.830;2023-03-14T20:59:50;175.38;;;80.15;;
44434;SDS011;30138;20.964;105.830;2023-03-14T21:05:00;165.38;;;79.85;;
44434;SDS011;30138;20.964;105.830;2023-03-14T21:10:11;161.70;;;79.30;;
44434;SDS011;30138;20.964;105.830;2023-03-14T21:15:18;172.10;;;78.22;;
44434;SDS011;30138;20.964;105.830;2023-03-14T21:20:27;158.20;;;76.15;;
44434;SDS011;30138;20.964;105.830;2023-03-14T21:25:34;159.68;;;76.95;;
44434;SDS011;30138;20.964;105.830;2023-03-14T21:30:41;142.00;;;74.22;;
44434;SDS011;30138;20.964;105.830;2023-03-14T21:35:52;145.07;;;72.50;;
44434;SDS011;30138;20.964;105.830;2023-03-14T21:41:00;153.30;;;70.70;;
44434;SDS011;30138;20.964;105.830;2023-03-14T21:46:08;142.77;;;70.90;;
44434;SDS011;30138;20.964;105.830;2023-03-14T21:51:17;144.43;;;67.50;;
44434;SDS011;30138;20.964;105.830;2023-03-14T21:56:31;144.48;;;68.85;;
44434;SDS011;30138;20.964;105.830;2023-03-14T22:01:38;139.27;;;69.68;;
44434;SDS011;30138;20.964;105.830;2023-03-14T22:06:46;137.13;;;68.35;;
44434;SDS011;30138;20.964;105.830;2023-03-14T22:11:53;146.98;;;68.43;;
44434;SDS011;30138;20.964;105.830;2023-03-14T22:17:00;147.82;;;68.53;;
44434;SDS011;30138;20.964;105.830;2023-03-14T22:22:09;144.48;;;66.88;;
44434;SDS011;30138;20.964;105.830;2023-03-14T22:27:16;137.27;;;68.63;;
44434;SDS011;30138;20.964;105.830;2023-03-14T22:32:23;147.77;;;70.07;;
44434;SDS011;30138;20.964;105.830;2023-03-14T22:37:32;141.73;;;68.93;;
44434;SDS011;30138;20.964;105.830;2023-03-14T22:42:39;131.55;;;69.68;;
44434;SDS011;30138;20.964;105.830;2023-03-14T22:47:48;141.05;;;69.70;;
44434;SDS011;30138;20.964;105.830;2023-03-14T22:52:57;127.40;;;70.13;;
44434;SDS011;30138;20.964;105.830;2023-03-14T22:58:04;157.93;;;73.28;;
44434;SDS011;30138;20.964;105.830;2023-03-14T23:03:11;137.52;;;69.88;;
44434;SDS011;30138;20.964;105.830;2023-03-14T23:08:20;154.40;;;71.22;;
44434;SDS011;30138;20.964;105.830;2023-03-14T23:13:27;141.00;;;70.85;;
44434;SDS011;30138;20.964;105.830;2023-03-14T23:18:35;140.07;;;69.43;;
44434;SDS011;30138;20.964;105.830;2023-03-14T23:23:46;152.60;;;72.63;;
44434;SDS011;30138;20.964;105.830;2023-03-14T23:28:53;145.27;;;71.82;;
44434;SDS011;30138;20.964;105.830;2023-03-14T23:34:00;141.90;;;68.47;;
44434;SDS011;30138;20.964;105.830;2023-03-14T23:39:09;138.93;;;70.88;;
44434;SDS011;30138;20.964;105.830;2023-03-14T23:44:15;150.73;;;70.90;;
44434;SDS011;30138;20.964;105.830;2023-03-14T23:49:23;142.32;;;71.35;;
44434;SDS011;30138;20.964;105.830;2023-03-14T23:54:32;136.20;;;70.22;;
44434;SDS011;30138;20.964;105.830;2023-03-14T23:59:39;128.02;;;67.70;;
